Time;durP1;ratioP1;P1;durP2;ratioP2;P2;SDS_P1;SDS_P2;PMS_P1;PMS_P2;Temp;Humidity;BMP_temperature;BMP_pressure;BME280_temperature;BME280_humidity;BME280_pressure;Samples;Min_cycle;Max_cycle;Signal;HPM_P1;HPM_P2
2022/04/26 03:38:28;;;;;;;23.00;2.80;;;;;6.10;97132.60;;;;110463;1253;41257;-63
2022/04/26 03:40:58;;;;;;;7.60;2.50;;;;;6.10;97134.80;;;;110529;1253;41645;-63
2022/04/26 03:43:29;;;;;;;23.10;3.00;;;;;6.16;97128.40;;;;110546;1253;41972;-63
2022/04/26 03:45:59;;;;;;;20.00;3.40;;;;;6.20;97136.40;;;;110489;1254;41261;-63
2022/04/26 03:48:29;;;;;;;44.00;5.70;;;;;6.22;97130.40;;;;110535;1253;41218;-63
2022/04/26 03:51:00;;;;;;;30.40;7.10;;;;;6.22;97137.80;;;;110618;1253;41369;-65
2022/04/26 03:53:29;;;;;;;24.30;7.10;;;;;6.10;97140.20;;;;110701;1253;41338;-63
2022/04/26 03:56:00;;;;;;;47.50;7.80;;;;;6.00;97142.20;;;;110562;1253;42464;-64
2022/04/26 03:58:29;;;;;;;45.10;7.30;;;;;5.90;97146.80;;;;110595;1253;42258;-64
2022/04/26 04:01:00;;;;;;;13.10;5.40;;;;;5.90;97152.20;;;;110553;1253;41421;-64
2022/04/26 04:03:30;;;;;;;23.20;4.80;;;;;6.00;97152.60;;;;110562;1253;41146;-65
2022/04/26 04:05:59;;;;;;;12.00;4.30;;;;;6.20;97144.20;;;;110520;1255;41165;-64
2022/04/26 04:08:29;;;;;;;9.50;4.20;;;;;6.50;97144.20;;;;110522;1253;41149;-65
2022/04/26 04:10:59;;;;;;;12.10;4.70;;;;;6.86;97136.00;;;;110586;1253;41318;-64
2022/04/26 04:13:29;;;;;;;10.20;4.00;;;;;7.30;97139.00;;;;110576;1253;41698;-62
2022/04/26 04:15:59;;;;;;;23.80;4.40;;;;;7.60;97151.20;;;;110541;1253;41136;-63
2022/04/26 04:21:16;;;;;;;28.20;9.70;;;;;8.00;97137.00;;;;110513;1253;41867;-64
2022/04/26 04:23:45;;;;;;;17.50;8.40;;;;;8.34;97137.60;;;;110470;1256;41168;-64
2022/04/26 04:26:14;;;;;;;15.30;6.30;;;;;8.70;97143.00;;;;110457;1253;42185;-64
2022/04/26 04:28:44;;;;;;;9.70;4.50;;;;;8.70;97166.00;;;;110494;1253;41469;-63
2022/04/26 04:31:17;;;;;;;12.30;4.50;;;;;8.50;97172.00;;;;110517;1253;41652;-63
2022/04/26 04:33:46;;;;;;;11.70;4.50;;;;;8.40;97179.20;;;;110443;1253;41950;-63
2022/04/26 04:36:15;;;;;;;10.10;4.40;;;;;8.30;97180.40;;;;110423;1253;41918;-63
2022/04/26 04:38:44;;;;;;;9.20;4.00;;;;;8.12;97183.40;;;;110568;1254;41159;-65
2022/04/26 04:41:14;;;;;;;10.20;4.70;;;;;8.10;97185.60;;;;110508;1253;42387;-64
2022/04/26 04:43:45;;;;;;;12.80;6.90;;;;;7.98;97182.00;;;;110520;1255;41519;-64
2022/04/26 04:46:14;;;;;;;13.60;6.80;;;;;7.80;97174.00;;;;110538;1254;41460;-64
2022/04/26 04:48:44;;;;;;;13.90;6.50;;;;;7.70;97173.40;;;;110530;1253;42109;-64
2022/04/26 04:51:13;;;;;;;13.60;6.80;;;;;8.20;97166.40;;;;110610;1254;42183;-62
2022/04/26 04:53:42;;;;;;;11.80;6.10;;;;;8.40;97166.80;;;;110617;1253;41153;-62
2022/04/26 04:56:13;;;;;;;11.90;5.20;;;;;8.80;97167.20;;;;110572;1252;41599;-65
2022/04/26 04:58:43;;;;;;;11.90;5.90;;;;;8.90;97171.60;;;;110589;1253;41619;-64
2022/04/26 05:01:12;;;;;;;10.40;4.90;;;;;8.92;97173.00;;;;110518;1254;41606;-63
2022/04/26 05:03:42;;;;;;;9.80;4.50;;;;;9.10;97182.00;;;;110560;1253;41276;-63
2022/04/26 05:06:15;;;;;;;9.30;4.50;;;;;9.92;97152.80;;;;110434;1255;41188;-64
2022/04/26 05:08:45;;;;;;;10.50;4.40;;;;;11.48;97155.40;;;;110524;1253;41399;-64
2022/04/26 05:11:15;;;;;;;8.20;4.00;;;;;12.98;97153.20;;;;110606;1253;41169;-64
2022/04/26 05:13:45;;;;;;;7.70;3.50;;;;;14.04;97169.20;;;;110581;1254;41609;-64
2022/04/26 05:16:14;;;;;;;7.80;3.60;;;;;14.16;97178.20;;;;110565;1253;40917;-64
2022/04/26 05:18:44;;;;;;;11.50;4.40;;;;;13.84;97183.20;;;;110573;1253;42208;-64
2022/04/26 05:21:14;;;;;;;11.40;5.10;;;;;13.36;97176.80;;;;110584;1253;41165;-64
2022/04/26 05:26:33;;;;;;;10.50;4.80;;;;;14.04;97150.60;;;;110493;1254;41155;-64
2022/04/26 05:29:05;;;;;;;14.70;5.50;;;;;14.42;97157.60;;;;110591;1253;41212;-64
2022/04/26 05:31:34;;;;;;;10.50;4.70;;;;;15.00;97166.60;;;;110590;1253;41139;-63
2022/04/26 05:34:04;;;;;;;10.30;4.30;;;;;14.50;97178.40;;;;110564;1253;41194;-63
2022/04/26 05:36:35;;;;;;;8.60;3.70;;;;;13.60;97185.40;;;;110584;1253;42269;-64
2022/04/26 05:39:04;;;;;;;8.50;3.70;;;;;13.12;97199.20;;;;110558;1253;41139;-64
2022/04/26 05:41:33;;;;;;;8.30;3.50;;;;;12.74;97206.60;;;;110598;1253;41270;-64
2022/04/26 05:44:02;;;;;;;9.40;3.10;;;;;12.44;97215.40;;;;110596;1254;41597;-64
2022/04/26 05:46:32;;;;;;;9.10;4.30;;;;;12.30;97215.80;;;;110557;1253;41728;-64
2022/04/26 05:49:01;;;;;;;11.70;5.70;;;;;12.10;97225.00;;;;110558;1253;41136;-64
2022/04/26 05:51:31;;;;;;;12.30;5.80;;;;;11.72;97229.40;;;;110611;1253;41209;-64
2022/04/26 05:54:00;;;;;;;10.00;5.00;;;;;11.32;97228.20;;;;110631;1253;42554;-64
2022/04/26 05:56:30;;;;;;;11.10;5.60;;;;;11.10;97237.00;;;;110547;1253;42396;-64
2022/04/26 05:58:59;;;;;;;11.70;5.50;;;;;10.94;97239.80;;;;110481;1253;42075;-64
2022/04/26 06:01:28;;;;;;;9.40;4.40;;;;;10.80;97245.80;;;;110547;1253;41260;-64
2022/04/26 06:03:58;;;;;;;8.80;3.60;;;;;10.70;97243.60;;;;110493;1253;42036;-64
2022/04/26 06:06:27;;;;;;;10.50;3.40;;;;;10.70;97245.60;;;;110528;1253;41211;-64
2022/04/26 06:08:56;;;;;;;7.10;3.30;;;;;10.80;97249.40;;;;110603;1254;41264;-65
2022/04/26 06:11:26;;;;;;;7.60;3.20;;;;;11.00;97255.20;;;;110473;1253;41268;-65
2022/04/26 06:13:55;;;;;;;6.70;3.00;;;;;11.20;97251.20;;;;110492;1253;41163;-65
2022/04/26 06:16:24;;;;;;;7.60;3.10;;;;;11.50;97249.80;;;;110627;1254;41827;-65
2022/04/26 06:18:53;;;;;;;8.10;3.60;;;;;11.76;97250.60;;;;110535;1253;41166;-64
2022/04/26 06:21:24;;;;;;;8.30;3.60;;;;;11.90;97246.60;;;;110550;1253;41750;-64
2022/04/26 06:23:53;;;;;;;10.00;4.30;;;;;12.00;97245.00;;;;110610;1252;41623;-64
2022/04/26 06:26:22;;;;;;;8.00;3.90;;;;;12.00;97244.40;;;;110446;1253;41631;-64
2022/04/26 06:28:52;;;;;;;8.40;4.10;;;;;12.02;97244.40;;;;110087;1253;714686;-64
2022/04/26 06:31:21;;;;;;;10.00;4.70;;;;;12.00;97242.40;;;;110554;1253;41155;-64
2022/04/26 06:33:50;;;;;;;10.30;4.50;;;;;12.00;97241.20;;;;110522;1253;41159;-64
2022/04/26 06:36:20;;;;;;;11.00;5.20;;;;;12.00;97246.80;;;;110536;1253;41158;-64
2022/04/26 06:38:49;;;;;;;12.70;5.90;;;;;12.00;97244.80;;;;110512;1253;41652;-64
2022/04/26 06:41:19;;;;;;;11.70;4.80;;;;;12.00;97246.20;;;;110509;1253;41130;-64
2022/04/26 06:43:48;;;;;;;9.00;4.20;;;;;12.06;97250.80;;;;110594;1253;40973;-65
2022/04/26 06:46:17;;;;;;;12.10;4.80;;;;;12.16;97252.20;;;;110581;1253;41254;-65
2022/04/26 06:48:49;;;;;;;9.90;4.30;;;;;12.30;97253.00;;;;110532;1253;42527;-65
2022/04/26 06:51:18;;;;;;;8.10;4.00;;;;;12.30;97251.40;;;;110503;1253;41655;-64
2022/04/26 06:53:47;;;;;;;9.30;4.20;;;;;12.50;97255.00;;;;110521;1253;41187;-65
2022/04/26 06:56:17;;;;;;;7.80;3.60;;;;;12.60;97247.00;;;;110660;1253;41315;-64
2022/04/26 06:58:48;;;;;;;8.00;3.70;;;;;12.70;97252.80;;;;110469;1254;42228;-64
2022/04/26 07:01:17;;;;;;;8.30;4.00;;;;;12.84;97251.00;;;;110548;1253;41178;-65
2022/04/26 07:04:07;;;;;;;8.80;3.80;;;;;12.90;97257.60;;;;110569;1253;41146;-65
2022/04/26 07:06:38;;;;;;;8.60;4.10;;;;;13.00;97262.40;;;;110553;1253;41203;-64
2022/04/26 07:09:07;;;;;;;;;;;;;13.10;97260.00;;;;110525;1254;42512;-64
2022/04/26 07:11:36;;;;;;;11.70;4.00;;;;;13.10;97262.00;;;;110525;1254;41728;-65
2022/04/26 07:14:05;;;;;;;7.80;3.30;;;;;13.10;97260.40;;;;110464;1253;41153;-63
2022/04/26 07:16:35;;;;;;;9.30;3.40;;;;;13.10;97263.40;;;;110516;1253;41147;-64
2022/04/26 07:19:04;;;;;;;8.90;3.30;;;;;13.18;97259.20;;;;110563;1254;41277;-64
2022/04/26 07:21:35;;;;;;;6.80;3.10;;;;;13.20;97259.20;;;;110521;1253;41273;-64
2022/04/26 07:24:25;;;;;;;8.40;3.20;;;;;13.30;97260.00;;;;110525;1253;41206;-64
2022/04/26 07:26:55;;;;;;;9.20;3.50;;;;;13.40;97260.20;;;;110576;1254;41171;-64
2022/04/26 07:29:24;;;;;;;8.80;3.40;;;;;13.58;97262.40;;;;110521;1253;41164;-64
2022/04/26 07:31:53;;;;;;;8.20;3.80;;;;;13.80;97257.80;;;;110494;1253;41273;-64
2022/04/26 07:34:25;;;;;;;8.50;3.20;;;;;14.20;97263.80;;;;110488;1253;41188;-64
2022/04/26 07:37:02;;;;;;;7.50;3.30;;;;;14.60;97259.20;;;;110450;1253;41443;-67
2022/04/26 07:39:35;;;;;;;8.80;3.80;;;;;15.18;97260.00;;;;110560;1253;41699;-64
2022/04/26 07:42:05;;;;;;;7.90;3.40;;;;;16.04;97255.60;;;;110544;1253;42037;-65
2022/04/26 07:44:35;;;;;;;9.70;3.40;;;;;16.94;97253.80;;;;110533;1254;42531;-65
2022/04/26 07:47:05;;;;;;;7.10;3.10;;;;;17.72;97257.80;;;;110541;1253;41162;-64
2022/04/26 07:49:35;;;;;;;7.60;3.10;;;;;18.38;97251.60;;;;110549;1254;41356;-63
2022/04/26 07:52:05;;;;;;;8.70;3.60;;;;;19.02;97253.00;;;;110554;1255;41179;-64
2022/04/26 07:54:35;;;;;;;7.30;3.00;;;;;19.14;97259.40;;;;110479;1255;41274;-63
2022/04/26 07:57:04;;;;;;;6.70;3.00;;;;;19.54;97260.80;;;;110493;1255;42225;-64
2022/04/26 07:59:34;;;;;;;6.70;2.90;;;;;20.46;97257.00;;;;110510;1253;41178;-64
2022/04/26 08:02:07;;;;;;;6.50;2.40;;;;;21.72;97245.00;;;;110516;1255;41468;-64
2022/04/26 08:04:37;;;;;;;6.70;2.70;;;;;22.96;97247.40;;;;110536;1253;41157;-64
2022/04/26 08:07:06;;;;;;;7.50;3.00;;;;;23.64;97238.80;;;;110525;1253;41787;-64
2022/04/26 08:09:38;;;;;;;5.30;2.50;;;;;24.00;97247.60;;;;110453;1253;41606;-65
2022/04/26 08:12:08;;;;;;;7.20;2.90;;;;;24.72;97244.60;;;;110543;1253;41718;-65
2022/04/26 08:14:37;;;;;;;7.40;3.30;;;;;25.56;97246.20;;;;110579;1253;41144;-65
2022/04/26 08:17:06;;;;;;;6.40;2.70;;;;;25.62;97237.00;;;;110547;1253;41363;-65
2022/04/26 08:19:36;;;;;;;7.20;3.00;;;;;25.86;97249.60;;;;110568;1253;41207;-65
2022/04/26 08:22:05;;;;;;;6.30;2.60;;;;;25.18;97251.20;;;;110535;1254;42389;-65
2022/04/26 08:27:22;;;;;;;7.90;3.10;;;;;24.40;97257.60;;;;110520;1253;41259;-65
2022/04/26 08:29:53;;;;;;;9.20;3.30;;;;;24.90;97246.40;;;;110482;1254;41150;-64
2022/04/26 08:32:23;;;;;;;8.50;3.10;;;;;25.26;97245.00;;;;110635;1253;41181;-65
2022/04/26 08:34:53;;;;;;;5.40;2.60;;;;;25.70;97240.60;;;;110599;1253;41159;-64
2022/04/26 08:37:23;;;;;;;5.40;2.10;;;;;26.10;97232.80;;;;110612;1254;41251;-65
2022/04/26 08:39:55;;;;;;;6.70;2.60;;;;;26.42;97232.00;;;;110519;1254;42291;-64
2022/04/26 08:42:53;;;;;;;5.50;2.00;;;;;26.86;97229.60;;;;110562;1253;42362;-64
2022/04/26 08:45:22;;;;;;;8.90;2.90;;;;;27.50;97233.60;;;;110120;1259;41158;-64
2022/04/26 08:53:35;;;;;;;3.70;1.80;;;;;28.52;97237.40;;;;110201;1259;42396;-64
2022/04/26 08:56:06;;;;;;;5.60;1.80;;;;;29.10;97235.00;;;;110129;1259;41580;-64
2022/04/26 08:58:36;;;;;;;3.60;1.50;;;;;29.74;97233.20;;;;110176;1259;41145;-64
2022/04/26 09:01:10;;;;;;;2.70;1.70;;;;;30.24;97229.20;;;;109991;1259;41388;-64
2022/04/26 09:03:55;;;;;;;3.50;1.60;;;;;30.38;97235.60;;;;110181;1259;41205;-65
2022/04/26 09:06:36;;;;;;;3.40;1.70;;;;;29.46;97240.80;;;;110123;1259;42064;-65
2022/04/26 09:09:14;;;;;;;4.40;1.60;;;;;28.58;97235.60;;;;110117;1259;41516;-64
2022/04/26 09:11:43;;;;;;;3.50;1.50;;;;;28.22;97238.00;;;;110089;1259;41156;-64
2022/04/26 09:14:32;;;;;;;2.70;1.60;;;;;28.32;97245.60;;;;110058;1261;41169;-64
2022/04/26 09:17:05;;;;;;;3.50;1.60;;;;;28.06;97242.40;;;;110119;1259;41154;-64
2022/04/26 09:19:48;;;;;;;5.40;1.80;;;;;28.46;97239.00;;;;110043;1259;41173;-64
2022/04/26 09:22:28;;;;;;;2.90;1.50;;;;;28.70;97246.80;;;;110322;1253;41944;-64
2022/04/26 09:24:58;;;;;;;4.40;1.70;;;;;28.80;97247.00;;;;110545;1254;41152;-65
2022/04/26 09:27:29;;;;;;;3.30;1.50;;;;;28.54;97246.40;;;;110622;1254;42386;-64
2022/04/26 09:29:58;;;;;;;3.80;1.70;;;;;28.30;97248.80;;;;110607;1253;41614;-64
2022/04/26 09:32:40;;;;;;;5.80;1.80;;;;;28.10;97237.60;;;;110566;1251;41254;-65
2022/04/26 09:35:23;;;;;;;4.40;1.70;;;;;28.10;97241.40;;;;110528;1253;41956;-65
2022/04/26 09:37:52;;;;;;;4.00;1.80;;;;;28.48;97243.80;;;;110559;1253;41895;-64
2022/04/26 09:40:28;;;;;;;4.70;1.90;;;;;28.76;97230.80;;;;110517;1254;42255;-66
2022/04/26 09:42:57;;;;;;;5.90;2.10;;;;;28.44;97244.60;;;;110546;1253;41149;-65
2022/04/26 09:45:27;;;;;;;5.10;1.90;;;;;27.12;97236.60;;;;110493;1254;41147;-65
2022/04/26 09:47:58;;;;;;;5.00;2.30;;;;;26.06;97237.40;;;;110640;1254;41273;-65
2022/04/26 09:50:28;;;;;;;5.20;1.90;;;;;25.56;97237.20;;;;110540;1253;41276;-64
2022/04/26 09:52:57;;;;;;;5.80;2.00;;;;;24.70;97237.40;;;;110558;1255;41195;-64
2022/04/26 09:55:27;;;;;;;3.80;1.60;;;;;25.30;97236.60;;;;110590;1253;41145;-64
2022/04/26 09:57:57;;;;;;;5.30;2.10;;;;;26.10;97243.80;;;;110579;1254;41692;-66
2022/04/26 10:00:27;;;;;;;5.30;2.20;;;;;26.70;97242.00;;;;110589;1253;41181;-64
2022/04/26 10:02:59;;;;;;;7.10;2.50;;;;;26.50;97238.80;;;;110588;1254;42495;-65
2022/04/26 10:05:31;;;;;;;6.00;2.10;;;;;26.18;97229.00;;;;110531;1253;41174;-64
2022/04/26 10:08:01;;;;;;;5.30;2.20;;;;;25.40;97237.60;;;;110568;1253;41712;-65
2022/04/26 10:10:30;;;;;;;5.50;1.70;;;;;25.00;97238.40;;;;110431;1254;41171;-64
2022/04/26 10:15:48;;;;;;;6.00;2.10;;;;;24.16;97236.20;;;;110487;1253;41150;-65
2022/04/26 10:18:43;;;;;;;4.10;1.60;;;;;24.96;97236.00;;;;110589;1253;42132;-64
2022/04/26 10:21:39;;;;;;;5.30;2.00;;;;;25.88;97241.80;;;;110564;1253;41346;-64
2022/04/26 10:24:17;;;;;;;3.50;1.70;;;;;25.46;97236.60;;;;110480;1255;41670;-64
2022/04/26 10:26:48;;;;;;;5.00;2.20;;;;;24.28;97241.00;;;;110489;1253;41268;-64
2022/04/26 10:29:20;;;;;;;6.00;2.40;;;;;23.90;97235.40;;;;110608;1253;41136;-68
2022/04/26 10:31:55;;;;;;;5.30;2.00;;;;;23.92;97241.00;;;;110567;1253;41670;-66
2022/04/26 10:34:30;;;;;;;4.10;1.70;;;;;24.00;97242.80;;;;110628;1253;41298;-65
2022/04/26 10:37:11;;;;;;;7.70;2.20;;;;;23.90;97248.00;;;;110623;1253;42623;-65
2022/04/26 10:39:50;;;;;;;4.60;1.90;;;;;23.76;97245.20;;;;110638;1254;41159;-64
2022/04/26 10:42:19;;;;;;;3.80;1.70;;;;;23.80;97234.80;;;;110576;1254;41916;-65
2022/04/26 10:44:49;;;;;;;3.20;1.50;;;;;23.90;97252.20;;;;110623;1254;41935;-65
2022/04/26 10:47:18;;;;;;;2.90;1.50;;;;;23.50;97248.80;;;;110602;1253;42863;-65
2022/04/26 10:49:49;;;;;;;3.70;1.60;;;;;23.28;97248.40;;;;110574;1252;41591;-64
2022/04/26 10:52:34;;;;;;;2.60;1.40;;;;;23.22;97242.20;;;;110616;1253;41490;-65
2022/04/26 10:55:08;;;;;;;3.40;1.60;;;;;23.70;97248.40;;;;110659;1253;41634;-65
2022/04/26 10:57:40;;;;;;;3.30;1.40;;;;;24.38;97242.40;;;;110632;1254;41618;-65
2022/04/26 11:00:16;;;;;;;3.10;1.40;;;;;24.60;97242.80;;;;110548;1253;41295;-64
2022/04/26 11:02:47;;;;;;;2.20;1.20;;;;;24.70;97249.20;;;;110594;1253;41608;-65
2022/04/26 11:05:17;;;;;;;2.70;1.30;;;;;24.88;97246.00;;;;110635;1253;41182;-66
2022/04/26 11:07:48;;;;;;;2.30;1.20;;;;;25.10;97244.40;;;;110607;1252;41258;-65
2022/04/26 11:10:25;;;;;;;1.90;1.30;;;;;25.00;97246.60;;;;110540;1254;41159;-65
2022/04/26 11:12:56;;;;;;;1.30;1.10;;;;;25.26;97241.20;;;;110525;1254;41187;-65
2022/04/26 11:15:26;;;;;;;2.30;1.20;;;;;26.28;97238.00;;;;110587;1254;41158;-66
2022/04/26 11:17:55;;;;;;;1.80;1.20;;;;;27.52;97236.60;;;;110619;1254;41252;-65
2022/04/26 11:20:25;;;;;;;2.90;1.30;;;;;28.54;97231.00;;;;110606;1253;41288;-66
2022/04/26 11:22:55;;;;;;;;;;;;;28.78;97229.20;;;;110605;1254;41154;-65
2022/04/26 11:28:17;;;;;;;5.00;1.70;;;;;28.84;97232.20;;;;110611;1253;41130;-65
2022/04/26 11:30:48;;;;;;;5.10;2.10;;;;;28.40;97228.00;;;;110630;1253;41147;-66
2022/04/26 11:33:22;;;;;;;4.60;1.70;;;;;28.56;97224.00;;;;110623;1253;41261;-66
2022/04/26 11:35:56;;;;;;;3.40;1.50;;;;;28.20;97233.40;;;;110514;1253;41138;-66
2022/04/26 11:38:25;;;;;;;1.90;1.30;;;;;27.36;97228.00;;;;110525;1255;41749;-65
2022/04/26 11:41:00;;;;;;;2.10;1.30;;;;;28.14;97227.60;;;;110459;1254;41165;-65
2022/04/26 11:43:31;;;;;;;3.30;1.30;;;;;28.88;97235.20;;;;110584;1253;41626;-67
2022/04/26 11:46:02;;;;;;;3.20;1.20;;;;;28.80;97238.20;;;;110623;1254;41170;-65
2022/04/26 11:48:34;;;;;;;3.90;1.40;;;;;28.30;97235.80;;;;110633;1253;41158;-67
2022/04/26 11:51:04;;;;;;;2.60;1.20;;;;;27.84;97232.40;;;;110619;1253;41714;-65
2022/04/26 11:53:37;;;;;;;2.40;1.40;;;;;27.36;97235.60;;;;110599;1253;41170;-66
2022/04/26 11:56:06;;;;;;;2.00;1.20;;;;;27.14;97221.40;;;;110630;1253;41188;-65
2022/04/26 11:58:37;;;;;;;3.20;1.40;;;;;27.92;97217.20;;;;110577;1254;41839;-66
2022/04/26 12:01:17;;;;;;;3.20;1.40;;;;;29.12;97211.80;;;;110652;1253;41143;-65
2022/04/26 12:03:53;;;;;;;3.50;1.60;;;;;30.16;97211.00;;;;110582;1253;41381;-65
2022/04/26 12:06:34;;;;;;;3.50;1.60;;;;;29.86;97208.00;;;;110607;1253;41161;-66
2022/04/26 12:09:05;;;;;;;3.50;1.50;;;;;30.38;97196.60;;;;110570;1253;41186;-64
2022/04/26 12:11:37;;;;;;;3.30;1.40;;;;;30.40;97189.60;;;;110501;1254;42744;-64
2022/04/26 12:14:08;;;;;;;3.00;1.30;;;;;30.20;97192.80;;;;110590;1253;41142;-65
2022/04/26 12:16:40;;;;;;;2.40;1.30;;;;;29.08;97191.60;;;;110605;1253;41170;-67
2022/04/26 12:19:11;;;;;;;2.20;1.30;;;;;28.70;97184.60;;;;110621;1253;41645;-65
2022/04/26 12:21:58;;;;;;;2.40;1.30;;;;;28.68;97184.00;;;;110563;1254;42353;-65
2022/04/26 12:24:32;;;;;;;2.00;1.00;;;;;29.08;97187.40;;;;110578;1253;41673;-64
2022/04/26 12:27:12;;;;;;;4.30;1.30;;;;;30.02;97187.80;;;;110570;1254;41157;-66
2022/04/26 12:29:45;;;;;;;;;;;;;30.84;97181.60;;;;110529;1254;41254;-66
2022/04/26 12:32:16;;;;;;;4.00;1.20;;;;;31.20;97185.60;;;;110622;1253;42556;-66
2022/04/26 12:34:50;;;;;;;5.80;1.30;;;;;31.62;97182.60;;;;110628;1254;41917;-67
2022/04/26 12:37:23;;;;;;;2.40;1.30;;;;;30.92;97193.80;;;;110648;1253;41895;-66
2022/04/26 12:39:55;;;;;;;1.80;1.20;;;;;30.24;97188.80;;;;110761;1253;41601;-68
2022/04/26 12:42:27;;;;;;;1.80;1.20;;;;;29.32;97187.40;;;;110680;1254;41158;-67
2022/04/26 12:44:59;;;;;;;3.70;1.30;;;;;29.50;97188.40;;;;110589;1253;41296;-65
2022/04/26 12:50:29;;;;;;;1.20;0.80;;;;;30.14;97178.60;;;;110582;1253;41147;-65
2022/04/26 12:53:04;;;;;;;1.80;1.00;;;;;30.56;97174.40;;;;110575;1254;41258;-65
2022/04/26 12:55:41;;;;;;;2.30;1.10;;;;;31.00;97174.40;;;;110551;1254;41738;-67
2022/04/26 12:58:12;;;;;;;2.80;0.80;;;;;30.70;97175.00;;;;110618;1253;42110;-66
2022/04/26 13:00:43;;;;;;;1.20;1.00;;;;;30.22;97173.00;;;;110601;1254;41148;-66
2022/04/26 13:03:18;;;;;;;2.60;1.30;;;;;29.90;97170.00;;;;110619;1254;41270;-66
2022/04/26 13:05:51;;;;;;;3.30;1.60;;;;;29.48;97167.00;;;;110606;1254;41725;-65
2022/04/26 13:08:21;;;;;;;2.80;1.30;;;;;27.98;97167.40;;;;110494;1254;41516;-66
2022/04/26 13:10:50;;;;;;;3.60;1.50;;;;;26.70;97172.00;;;;110554;1254;41728;-66
2022/04/26 13:13:19;;;;;;;3.50;1.30;;;;;26.10;97173.40;;;;110462;1254;41180;-64
2022/04/26 13:15:49;;;;;;;2.10;1.20;;;;;25.40;97173.60;;;;110667;1254;41641;-67
2022/04/26 13:18:18;;;;;;;4.60;1.50;;;;;25.30;97168.00;;;;110590;1254;42553;-66
2022/04/26 13:20:48;;;;;;;3.20;1.50;;;;;25.32;97164.80;;;;110579;1253;42606;-66
2022/04/26 13:23:17;;;;;;;2.80;1.40;;;;;24.78;97166.40;;;;110587;1254;41143;-66
2022/04/26 13:25:46;;;;;;;3.20;1.40;;;;;24.20;97173.00;;;;110605;1253;41524;-65
2022/04/26 13:28:16;;;;;;;3.90;1.40;;;;;24.04;97176.20;;;;110455;1255;42500;-65
2022/04/26 13:30:45;;;;;;;1.80;1.20;;;;;23.90;97168.40;;;;110482;1253;41722;-65
2022/04/26 13:33:14;;;;;;;2.70;1.20;;;;;24.00;97168.80;;;;110548;1253;41248;-65
2022/04/26 13:35:47;;;;;;;3.20;1.20;;;;;24.10;97166.40;;;;110521;1253;41160;-65
2022/04/26 13:38:17;;;;;;;1.30;1.10;;;;;24.12;97162.80;;;;110466;1253;41153;-65
2022/04/26 13:40:47;;;;;;;2.40;1.20;;;;;24.06;97156.00;;;;110430;1256;41177;-64
2022/04/26 13:43:18;;;;;;;12.50;1.70;;;;;24.10;97155.00;;;;110570;1253;41165;-65
2022/04/26 13:46:07;;;;;;;5.40;1.50;;;;;24.30;97157.40;;;;110510;1254;42501;-67
2022/04/26 13:48:36;;;;;;;3.10;1.40;;;;;24.30;97155.40;;;;110525;1255;41159;-67
2022/04/26 13:51:05;;;;;;;2.80;1.20;;;;;24.20;97152.00;;;;110507;1253;41944;-67
2022/04/26 13:53:35;;;;;;;1.90;1.20;;;;;24.02;97155.00;;;;110556;1254;41474;-67
2022/04/26 13:56:06;;;;;;;2.40;1.50;;;;;24.00;97153.80;;;;110596;1253;41592;-65
2022/04/26 13:58:35;;;;;;;2.10;1.30;;;;;24.00;97149.00;;;;110603;1254;41338;-66
2022/04/26 14:01:04;;;;;;;2.00;1.20;;;;;23.90;97153.00;;;;110544;1255;41442;-66
2022/04/26 14:03:34;;;;;;;1.10;1.00;;;;;23.90;97152.80;;;;110564;1254;41154;-66
2022/04/26 14:06:04;;;;;;;1.30;1.20;;;;;23.90;97152.20;;;;110510;1254;42983;-66
2022/04/26 14:08:36;;;;;;;2.30;1.30;;;;;23.90;97155.80;;;;110505;1255;42389;-66
2022/04/26 14:11:05;;;;;;;1.90;1.20;;;;;24.00;97152.40;;;;110522;1255;41148;-67
2022/04/26 14:21:47;;;;;;;1.80;1.20;;;;;23.90;97150.80;;;;110525;1255;41267;-66
2022/04/26 14:21:59;;;;;;;2.20;1.40;;;;;23.50;97145.00;;;;110469;1255;41169;-67
2022/04/26 14:24:29;;;;;;;2.20;1.30;;;;;23.50;97146.20;;;;110493;1255;41254;-67
2022/04/26 14:26:57;;;;;;;3.70;1.40;;;;;23.40;97151.60;;;;110546;1255;41603;-66
2022/04/26 14:29:27;;;;;;;1.50;1.20;;;;;23.08;97147.60;;;;110545;1254;41212;-66
2022/04/26 14:31:56;;;;;;;2.10;1.30;;;;;22.80;97146.00;;;;110532;1254;41838;-67
2022/04/26 14:34:26;;;;;;;3.40;1.50;;;;;22.70;97142.00;;;;110528;1253;41147;-67
2022/04/26 14:36:56;;;;;;;2.10;1.20;;;;;22.50;97147.00;;;;110496;1254;42471;-67
2022/04/26 14:39:25;;;;;;;1.70;1.20;;;;;22.30;97147.40;;;;110463;1255;41783;-67
2022/04/26 14:41:54;;;;;;;3.00;1.50;;;;;22.26;97143.80;;;;110539;1254;41158;-67
2022/04/26 14:44:23;;;;;;;2.20;1.30;;;;;22.30;97148.00;;;;110476;1255;41156;-66
2022/04/26 14:46:52;;;;;;;2.20;1.30;;;;;22.18;97151.40;;;;110477;1254;42030;-67
2022/04/26 14:49:22;;;;;;;1.70;1.40;;;;;22.24;97154.60;;;;110527;1254;41183;-67
2022/04/26 14:51:51;;;;;;;1.20;1.10;;;;;22.40;97151.40;;;;110522;1254;41183;-66
2022/04/26 14:54:21;;;;;;;2.30;1.30;;;;;22.40;97154.60;;;;110465;1254;41151;-66
2022/04/26 14:56:50;;;;;;;1.90;1.20;;;;;22.50;97154.80;;;;110515;1254;42432;-65
2022/04/26 14:59:22;;;;;;;3.10;1.30;;;;;22.50;97154.20;;;;110566;1253;42379;-66
2022/04/26 15:01:52;;;;;;;3.70;1.30;;;;;22.50;97152.00;;;;110531;1255;41668;-64
2022/04/26 15:04:23;;;;;;;2.30;1.30;;;;;22.50;97146.60;;;;110554;1254;41195;-64
2022/04/26 15:06:52;;;;;;;3.80;1.60;;;;;22.50;97145.80;;;;110514;1255;41158;-65
2022/04/26 15:17:54;;;;;;;1.40;1.10;;;;;22.40;97143.00;;;;110519;1255;42123;-66
2022/04/26 15:20:25;;;;;;;3.70;1.40;;;;;22.30;97147.20;;;;110473;1256;41480;-66
2022/04/26 15:22:55;;;;;;;1.50;1.30;;;;;22.30;97149.00;;;;110511;1256;41130;-66
2022/04/26 15:25:24;;;;;;;2.60;1.40;;;;;22.20;97148.00;;;;110560;1254;41949;-65
2022/04/26 15:27:53;;;;;;;1.80;1.20;;;;;22.20;97148.40;;;;110615;1254;41716;-66
2022/04/26 15:30:23;;;;;;;3.50;1.30;;;;;22.20;97150.40;;;;110596;1253;41153;-66
2022/04/26 15:32:52;;;;;;;1.40;1.30;;;;;22.10;97144.40;;;;110596;1254;42107;-65
2022/04/26 15:35:21;;;;;;;1.80;1.20;;;;;22.12;97146.60;;;;110570;1254;41472;-65
2022/04/26 15:37:50;;;;;;;1.60;1.20;;;;;22.10;97140.00;;;;110559;1254;41138;-65
2022/04/26 15:40:20;;;;;;;2.30;1.30;;;;;22.08;97140.60;;;;110606;1254;41200;-64
2022/04/26 15:42:49;;;;;;;1.80;1.10;;;;;22.00;97138.00;;;;110551;1254;41601;-65
2022/04/26 15:45:18;;;;;;;1.20;1.10;;;;;22.00;97137.80;;;;110509;1254;41197;-66
2022/04/26 15:47:47;;;;;;;4.80;1.40;;;;;21.94;97140.80;;;;110586;1253;41440;-66
2022/04/26 15:50:18;;;;;;;1.80;1.30;;;;;21.90;97139.80;;;;110535;1255;41182;-65
2022/04/26 15:52:47;;;;;;;;;;;;;21.86;97140.00;;;;110569;1254;41131;-65
2022/04/26 15:55:17;;;;;;;3.70;1.30;;;;;21.80;97143.20;;;;110549;1254;41394;-66
2022/04/26 15:57:47;;;;;;;2.50;1.40;;;;;21.80;97141.20;;;;110611;1254;41273;-66
2022/04/26 16:00:18;;;;;;;5.40;1.30;;;;;21.80;97142.60;;;;110585;1254;41150;-66
2022/04/26 16:02:51;;;;;;;3.20;1.70;;;;;21.72;97145.80;;;;110604;1254;41170;-65
2022/04/26 16:05:20;;;;;;;2.70;1.40;;;;;21.70;97147.00;;;;110652;1254;41640;-65
2022/04/26 16:07:51;;;;;;;4.40;1.50;;;;;21.60;97146.20;;;;110540;1253;41158;-66
2022/04/26 16:21:31;;;;;;;1.30;1.20;;;;;21.40;97152.60;;;;110580;1254;41597;-65
2022/04/26 16:24:00;;;;;;;1.40;1.20;;;;;21.30;97153.80;;;;110611;1254;41739;-65
2022/04/26 16:26:34;;;;;;;2.70;1.30;;;;;21.20;97154.20;;;;110598;1254;42102;-65
2022/04/26 16:29:05;;;;;;;2.50;1.30;;;;;21.10;97157.40;;;;110447;1255;41379;-67
2022/04/26 16:31:34;;;;;;;3.20;1.50;;;;;21.10;97157.20;;;;110546;1254;41273;-65
2022/04/26 16:34:04;;;;;;;2.90;1.30;;;;;21.02;97161.80;;;;110568;1254;41280;-65
2022/04/26 16:36:35;;;;;;;1.50;1.30;;;;;21.00;97164.40;;;;110546;1254;41166;-64
2022/04/26 16:39:06;;;;;;;2.40;1.20;;;;;20.90;97164.40;;;;110478;1255;41151;-65
2022/04/26 16:41:36;;;;;;;3.50;1.50;;;;;20.80;97171.60;;;;110519;1254;41656;-64
2022/04/26 16:44:06;;;;;;;2.60;1.40;;;;;20.70;97171.40;;;;110569;1255;41163;-66
2022/04/26 16:46:36;;;;;;;2.90;1.60;;;;;20.60;97174.00;;;;110484;1255;41551;-65
2022/04/26 16:49:05;;;;;;;2.90;1.40;;;;;20.58;97175.80;;;;110559;1254;41211;-66
2022/04/26 16:51:36;;;;;;;2.20;1.40;;;;;20.48;97176.60;;;;110543;1253;42598;-65
2022/04/26 16:54:06;;;;;;;2.40;1.40;;;;;20.30;97180.00;;;;110374;1254;41292;-65